createdAt,value
2023-04-20T00:00:49.379Z,71.59
2023-04-20T00:01:49.377Z,71.80
2023-04-20T00:02:49.588Z,71.80
2023-04-20T00:03:49.536Z,71.66
2023-04-20T00:04:49.350Z,71.49
2023-04-20T00:05:49.302Z,71.56
2023-04-20T00:06:49.294Z,71.56
2023-04-20T00:07:49.278Z,71.04
2023-04-20T00:08:49.268Z,71.22
2023-04-20T00:09:49.286Z,70.70
2023-04-20T00:10:49.248Z,70.28
2023-04-20T00:11:49.230Z,70.11
2023-04-20T00:12:49.219Z,70.21
2023-04-20T00:13:49.206Z,70.00
2023-04-20T00:14:49.195Z,71.14
2023-04-20T00:15:49.198Z,70.91
2023-04-20T00:16:49.307Z,70.73
2023-04-20T00:17:49.167Z,70.73
2023-04-20T00:18:49.146Z,70.59
2023-04-20T00:19:49.129Z,70.59
2023-04-20T00:20:49.115Z,70.39
2023-04-20T00:21:49.104Z,70.28
2023-04-20T00:22:49.099Z,70.70
2023-04-20T00:23:49.078Z,70.46
2023-04-20T00:24:49.070Z,71.28
2023-04-20T00:25:49.074Z,70.46
2023-04-20T00:26:49.050Z,69.73
2023-04-20T00:27:49.028Z,69.94
2023-04-20T00:28:49.027Z,70.25
2023-04-20T00:29:49.000Z,70.11
2023-04-20T00:30:49.020Z,70.56
2023-04-20T00:31:48.971Z,70.77
2023-04-20T00:32:49.007Z,70.56
2023-04-20T00:33:48.956Z,70.97
2023-04-20T00:34:48.933Z,71.18
2023-04-20T00:35:48.913Z,71.28
2023-04-20T00:36:48.905Z,71.60
2023-04-20T00:37:48.889Z,71.60
2023-04-20T00:38:48.883Z,71.28
2023-04-20T00:39:48.867Z,71.15
2023-04-20T00:40:48.895Z,71.28
2023-04-20T00:41:48.864Z,71.49
2023-04-20T00:42:48.825Z,71.39
2023-04-20T00:43:48.815Z,71.39
2023-04-20T00:44:48.800Z,71.28
2023-04-20T00:45:48.861Z,71.18
2023-04-20T00:46:48.775Z,71.08
2023-04-20T00:47:48.785Z,71.18
2023-04-20T00:48:48.749Z,72.35
2023-04-20T00:49:48.734Z,72.87
2023-04-20T00:50:48.726Z,72.66
2023-04-20T00:51:48.710Z,73.08
2023-04-20T00:52:48.709Z,73.49
2023-04-20T00:53:48.691Z,73.80
2023-04-20T00:54:48.669Z,74.12
2023-04-20T00:55:48.655Z,74.42
2023-04-20T00:56:48.644Z,74.53
2023-04-20T00:57:48.666Z,74.94
2023-04-20T00:58:48.619Z,75.15
2023-04-20T00:59:48.600Z,74.32
2023-04-20T01:00:48.585Z,74.21
2023-04-20T01:01:48.624Z,73.80
2023-04-20T01:02:48.686Z,74.77
2023-04-20T01:03:48.829Z,75.39
2023-04-20T01:04:48.540Z,76.32
2023-04-20T01:05:48.521Z,77.19
2023-04-20T01:06:48.511Z,77.39
2023-04-20T01:07:48.495Z,77.70
2023-04-20T01:08:48.500Z,77.70
2023-04-20T01:09:48.474Z,77.60
2023-04-20T01:10:48.465Z,77.60
2023-04-20T01:11:48.442Z,77.70
2023-04-20T01:12:48.441Z,77.39
2023-04-20T01:13:48.568Z,76.77
2023-04-20T01:14:48.404Z,76.56
2023-04-20T01:15:48.438Z,76.56
2023-04-20T01:16:48.377Z,76.15
2023-04-20T01:17:48.373Z,75.84
2023-04-20T01:18:48.371Z,75.70
2023-04-20T01:19:48.335Z,75.50
2023-04-20T01:20:48.322Z,75.42
2023-04-20T01:21:48.307Z,75.01
2023-04-20T01:22:48.301Z,75.01
2023-04-20T01:23:48.281Z,75.21
2023-04-20T01:24:48.269Z,76.15
2023-04-20T01:25:48.257Z,76.56
2023-04-20T01:26:48.252Z,76.36
2023-04-20T01:27:48.260Z,76.42
2023-04-20T01:28:48.219Z,76.73
2023-04-20T01:29:48.226Z,76.60
2023-04-20T01:30:48.190Z,76.25
2023-04-20T01:31:48.232Z,75.32
2023-04-20T01:32:48.193Z,74.49
2023-04-20T01:33:48.150Z,74.49
2023-04-20T01:34:48.140Z,75.01
2023-04-20T01:35:48.122Z,74.49
2023-04-20T01:36:48.112Z,74.60
2023-04-20T01:37:48.097Z,74.60
2023-04-20T01:38:48.088Z,75.01
2023-04-20T01:39:48.121Z,75.32
2023-04-20T01:40:48.060Z,75.46
2023-04-20T01:41:48.045Z,75.36
2023-04-20T01:42:48.032Z,75.98
2023-04-20T01:43:48.027Z,76.73
2023-04-20T01:44:48.003Z,76.84
2023-04-20T01:45:48.030Z,77.05
2023-04-20T01:46:48.015Z,77.39
2023-04-20T01:47:47.990Z,78.22
2023-04-20T01:48:47.958Z,78.95
2023-04-20T01:49:47.941Z,78.54
2023-04-20T01:50:47.930Z,78.43
2023-04-20T01:51:47.913Z,78.54
2023-04-20T01:52:47.904Z,78.43
2023-04-20T01:53:47.887Z,78.54
2023-04-20T01:54:47.877Z,78.22
2023-04-20T01:55:47.860Z,78.22
2023-04-20T01:56:47.854Z,78.02
2023-04-20T01:57:47.843Z,78.12
2023-04-20T01:58:47.824Z,78.22
2023-04-20T01:59:47.805Z,78.08
2023-04-20T02:00:47.834Z,77.67
2023-04-20T02:01:48.073Z,77.70
2023-04-20T02:02:47.927Z,78.02
2023-04-20T02:03:48.006Z,78.29
2023-04-20T02:04:47.743Z,78.29
2023-04-20T02:05:47.732Z,78.08
2023-04-20T02:06:47.724Z,78.15
2023-04-20T02:07:47.703Z,78.67
2023-04-20T02:08:47.702Z,79.29
2023-04-20T02:10:47.664Z,79.05
2023-04-20T02:11:47.657Z,79.22
2023-04-20T02:12:47.636Z,79.32
2023-04-20T02:13:47.624Z,79.32
2023-04-20T02:14:47.616Z,79.32
2023-04-20T02:15:47.598Z,79.39
2023-04-20T02:16:47.633Z,79.29
2023-04-20T02:17:47.771Z,79.18
2023-04-20T02:18:47.559Z,78.97
2023-04-20T02:19:47.546Z,78.77
2023-04-20T02:20:47.536Z,78.77
2023-04-20T02:21:47.522Z,78.63
2023-04-20T02:22:47.510Z,78.73
2023-04-20T02:23:47.495Z,78.83
2023-04-20T02:24:47.492Z,78.94
2023-04-20T02:25:47.471Z,79.04
2023-04-20T02:26:47.459Z,79.04
2023-04-20T02:27:47.443Z,79.25
2023-04-20T02:28:47.445Z,79.25
2023-04-20T02:29:47.417Z,79.32
2023-04-20T02:30:47.406Z,79.21
2023-04-20T02:31:47.451Z,79.11
2023-04-20T02:32:47.426Z,79.21
2023-04-20T02:33:47.388Z,79.32
2023-04-20T02:34:47.354Z,79.32
2023-04-20T02:35:47.342Z,79.41
2023-04-20T02:36:47.348Z,79.41
2023-04-20T02:37:47.317Z,79.32
2023-04-20T02:38:47.302Z,79.32
2023-04-20T02:39:47.291Z,79.32
2023-04-20T02:40:47.279Z,79.41
2023-04-20T02:41:47.279Z,79.38
2023-04-20T02:42:47.250Z,79.41
2023-04-20T02:43:47.236Z,79.48
2023-04-20T02:44:47.236Z,79.48
2023-04-20T02:45:47.216Z,79.38
2023-04-20T02:46:47.291Z,79.48
2023-04-20T02:47:47.313Z,79.73
2023-04-20T02:48:47.179Z,79.79
2023-04-20T02:49:47.230Z,79.79
2023-04-20T02:50:47.152Z,80.00
2023-04-20T02:51:47.138Z,80.00
2023-04-20T02:52:47.141Z,80.21
2023-04-20T02:53:47.115Z,80.10
2023-04-20T02:54:47.118Z,80.00
2023-04-20T02:55:47.082Z,80.21
2023-04-20T02:56:47.079Z,80.41
2023-04-20T02:57:47.094Z,80.62
2023-04-20T02:58:47.050Z,80.72
2023-04-20T02:59:47.036Z,81.34
2023-04-20T03:00:47.031Z,81.24
2023-04-20T03:01:47.035Z,81.24
2023-04-20T03:02:47.126Z,81.55
2023-04-20T03:03:47.210Z,81.96
2023-04-20T03:04:47.077Z,82.17
2023-04-20T03:05:46.995Z,81.96
2023-04-20T03:06:46.958Z,82.48
2023-04-20T03:07:46.936Z,82.58
2023-04-20T03:08:46.930Z,82.41
2023-04-20T03:09:46.914Z,82.62
2023-04-20T03:10:46.901Z,83.09
2023-04-20T03:11:46.881Z,83.03
2023-04-20T03:12:46.874Z,83.20
2023-04-20T03:13:46.887Z,83.51
2023-04-20T03:14:46.860Z,83.41
2023-04-20T03:15:46.833Z,83.82
2023-04-20T03:16:46.901Z,83.82
2023-04-20T03:17:46.852Z,84.13
2023-04-20T03:18:46.830Z,84.13
2023-04-20T03:19:46.801Z,84.23
2023-04-20T03:20:46.852Z,84.23
2023-04-20T03:21:46.817Z,84.23
2023-04-20T03:22:46.829Z,84.75
2023-04-20T03:23:46.732Z,84.79
2023-04-20T03:24:46.732Z,84.58
2023-04-20T03:25:46.703Z,85.06
2023-04-20T03:26:46.705Z,85.06
2023-04-20T03:27:46.689Z,85.06
2023-04-20T03:28:46.671Z,85.10
2023-04-20T03:29:46.655Z,85.27
2023-04-20T03:30:46.646Z,85.36
2023-04-20T03:31:46.746Z,85.47
2023-04-20T03:32:46.650Z,85.47
2023-04-20T03:33:46.602Z,85.57
2023-04-20T03:34:46.593Z,85.68
2023-04-20T03:35:46.575Z,85.68
2023-04-20T03:36:46.562Z,85.88
2023-04-20T03:37:46.637Z,86.09
2023-04-20T03:38:46.536Z,85.78
2023-04-20T03:39:46.532Z,85.99
2023-04-20T03:40:46.514Z,86.34
2023-04-20T03:41:46.509Z,86.23
2023-04-20T03:42:46.494Z,86.85
2023-04-20T03:43:46.475Z,86.75
2023-04-20T03:44:46.459Z,86.75
2023-04-20T03:45:46.612Z,86.13
2023-04-20T03:46:46.474Z,86.79
2023-04-20T03:47:46.437Z,86.99
2023-04-20T03:48:46.463Z,86.89
2023-04-20T03:49:46.455Z,87.20
2023-04-20T03:50:46.390Z,87.10
2023-04-20T03:51:46.419Z,87.31
2023-04-20T03:52:46.452Z,87.20
2023-04-20T03:53:46.468Z,87.51
2023-04-20T03:54:46.332Z,87.31
2023-04-20T03:55:46.321Z,87.51
2023-04-20T03:56:46.311Z,87.72
2023-04-20T03:57:46.303Z,87.93
2023-04-20T03:58:46.288Z,88.23
2023-04-20T03:59:46.271Z,88.20
2023-04-20T04:00:46.265Z,87.68
2023-04-20T04:01:46.250Z,87.68
2023-04-20T04:02:46.465Z,87.68
2023-04-20T04:03:46.471Z,87.37
2023-04-20T04:04:46.363Z,87.26
2023-04-20T04:05:46.220Z,87.47
2023-04-20T04:06:46.221Z,87.26
2023-04-20T04:07:46.174Z,87.06
2023-04-20T04:08:46.192Z,87.17
2023-04-20T04:09:46.173Z,87.06
2023-04-20T04:10:46.137Z,87.26
2023-04-20T04:11:46.121Z,87.57
2023-04-20T04:12:46.110Z,87.26
2023-04-20T04:13:46.101Z,87.47
2023-04-20T04:14:46.089Z,87.62
2023-04-20T04:15:46.074Z,87.99
2023-04-20T04:16:46.113Z,87.93
2023-04-20T04:17:46.167Z,88.14
2023-04-20T04:18:46.028Z,88.65
2023-04-20T04:19:46.014Z,88.75
2023-04-20T04:20:46.016Z,88.96
2023-04-20T04:21:45.998Z,89.11
2023-04-20T04:22:45.979Z,88.90
2023-04-20T04:23:45.970Z,89.21
2023-04-20T04:24:45.952Z,89.31
2023-04-20T04:25:45.981Z,89.52
2023-04-20T04:26:45.926Z,89.83
2023-04-20T04:27:45.917Z,89.83
2023-04-20T04:28:45.924Z,89.93
2023-04-20T04:29:45.893Z,89.93
2023-04-20T04:30:45.890Z,89.72
2023-04-20T04:31:45.915Z,89.72
2023-04-20T04:32:45.865Z,89.83
2023-04-20T04:33:45.843Z,89.78
2023-04-20T04:34:45.825Z,89.78
2023-04-20T04:35:45.855Z,90.10
2023-04-20T04:36:45.804Z,90.10
2023-04-20T04:37:45.794Z,89.89
2023-04-20T04:38:45.776Z,89.83
2023-04-20T04:39:45.769Z,90.24
2023-04-20T04:40:45.820Z,90.24
2023-04-20T04:41:45.771Z,90.55
2023-04-20T04:42:45.731Z,90.72
2023-04-20T04:43:45.714Z,91.03
2023-04-20T04:44:45.701Z,90.97
2023-04-20T04:45:45.704Z,90.86
2023-04-20T04:46:45.819Z,90.66
2023-04-20T04:47:45.666Z,90.97
2023-04-20T04:48:45.652Z,91.03
2023-04-20T04:49:45.639Z,90.93
2023-04-20T04:50:45.623Z,91.23
2023-04-20T04:51:45.634Z,91.44
2023-04-20T04:52:45.600Z,91.44
2023-04-20T04:53:45.589Z,91.44
2023-04-20T04:54:45.574Z,91.33
2023-04-20T04:55:45.564Z,91.23
2023-04-20T04:56:45.548Z,90.72
2023-04-20T04:57:45.565Z,90.72
2023-04-20T04:58:45.524Z,90.61
2023-04-20T04:59:45.512Z,90.05
2023-04-20T05:00:45.505Z,90.10
2023-04-20T05:01:45.574Z,90.30
2023-04-20T05:02:45.672Z,90.51
2023-04-20T05:03:45.616Z,90.61
2023-04-20T05:04:45.675Z,90.51
2023-04-20T05:05:45.445Z,90.51
2023-04-20T05:06:45.428Z,90.61
2023-04-20T05:07:45.423Z,90.61
2023-04-20T05:08:45.395Z,90.35
2023-04-20T05:09:45.381Z,90.45
2023-04-20T05:10:45.370Z,90.24
2023-04-20T05:11:45.356Z,90.24
2023-04-20T05:12:45.349Z,90.14
2023-04-20T05:13:45.358Z,90.35
2023-04-20T05:14:45.319Z,90.45
2023-04-20T05:15:45.309Z,90.55
2023-04-20T05:16:45.399Z,90.66
2023-04-20T05:17:45.315Z,90.82
2023-04-20T05:18:45.268Z,90.41
2023-04-20T05:19:45.256Z,89.93
2023-04-20T05:20:45.247Z,90.10
2023-04-20T05:21:45.233Z,90.10
2023-04-20T05:22:45.216Z,90.10
2023-04-20T05:23:45.211Z,89.99
2023-04-20T05:24:45.197Z,90.51
2023-04-20T05:25:45.187Z,90.51
2023-04-20T05:26:45.163Z,90.20
2023-04-20T05:27:45.153Z,89.99
2023-04-20T05:28:45.156Z,90.10
2023-04-20T05:29:45.154Z,90.47
2023-04-20T05:30:45.112Z,90.67
2023-04-20T05:31:45.158Z,90.47
2023-04-20T05:32:45.125Z,90.78
2023-04-20T05:33:45.076Z,90.67
2023-04-20T05:34:45.065Z,90.22
2023-04-20T05:35:45.052Z,89.44
2023-04-20T05:36:45.037Z,89.12
2023-04-20T05:37:45.082Z,89.12
2023-04-20T05:38:45.012Z,89.50
2023-04-20T05:39:44.997Z,89.70
2023-04-20T05:40:44.990Z,89.39
2023-04-20T05:41:44.974Z,89.29
2023-04-20T05:42:44.968Z,88.78
2023-04-20T05:43:44.950Z,88.98
2023-04-20T05:44:44.934Z,88.98
2023-04-20T05:45:44.998Z,88.88
2023-04-20T05:46:44.908Z,88.36
2023-04-20T05:47:44.908Z,88.15
2023-04-20T05:48:44.888Z,88.05
2023-04-20T05:49:44.872Z,88.47
2023-04-20T05:50:44.899Z,88.67
2023-04-20T05:51:44.860Z,88.47
2023-04-20T05:52:44.832Z,88.47
2023-04-20T05:53:44.827Z,88.36
2023-04-20T05:54:44.804Z,88.78
2023-04-20T05:55:44.805Z,89.39
2023-04-20T05:56:44.788Z,89.29
2023-04-20T05:57:44.776Z,89.39
2023-04-20T05:58:44.768Z,89.29
2023-04-20T05:59:44.749Z,89.15
2023-04-20T06:00:44.740Z,89.25
2023-04-20T06:01:44.765Z,89.05
2023-04-20T06:02:44.884Z,88.63
2023-04-20T06:03:45.009Z,88.47
2023-04-20T06:04:44.932Z,88.98
2023-04-20T06:05:44.701Z,88.94
2023-04-20T06:06:44.661Z,88.94
2023-04-20T06:07:44.646Z,88.57
2023-04-20T06:08:44.632Z,89.08
2023-04-20T06:09:44.617Z,89.50
2023-04-20T06:10:44.606Z,89.70
2023-04-20T06:11:44.594Z,89.19
2023-04-20T06:12:44.583Z,89.60
2023-04-20T06:13:44.568Z,89.70
2023-04-20T06:14:44.554Z,89.44
2023-04-20T06:15:44.561Z,89.54
2023-04-20T06:16:44.534Z,89.75
2023-04-20T06:17:44.606Z,89.64
2023-04-20T06:18:44.503Z,89.95
2023-04-20T06:19:44.492Z,90.05
2023-04-20T06:20:44.481Z,90.36
2023-04-20T06:21:44.466Z,90.67
2023-04-20T06:22:44.505Z,90.84
2023-04-20T06:23:44.463Z,90.84
2023-04-20T06:24:44.437Z,90.42
2023-04-20T06:25:44.413Z,90.18
2023-04-20T06:26:44.404Z,89.56
2023-04-20T06:27:44.391Z,89.19
2023-04-20T06:28:44.382Z,89.39
2023-04-20T06:29:44.361Z,89.66
2023-04-20T06:30:44.347Z,89.50
2023-04-20T06:31:44.503Z,89.29
2023-04-20T06:32:44.386Z,89.29
2023-04-20T06:33:44.341Z,89.02
2023-04-20T06:34:44.294Z,89.44
2023-04-20T06:35:44.282Z,90.05
2023-04-20T06:36:44.271Z,90.11
2023-04-20T06:37:44.259Z,90.11
2023-04-20T06:38:44.246Z,90.02
2023-04-20T06:39:44.239Z,89.91
2023-04-20T06:40:44.216Z,89.33
2023-04-20T06:41:44.216Z,89.23
2023-04-20T06:42:44.189Z,89.54
2023-04-20T06:43:44.178Z,89.95
2023-04-20T06:44:44.164Z,89.95
2023-04-20T06:45:44.160Z,89.33
2023-04-20T06:46:44.234Z,89.33
2023-04-20T06:47:44.159Z,89.44
2023-04-20T06:48:44.111Z,89.75
2023-04-20T06:49:44.136Z,89.54
2023-04-20T06:50:44.087Z,89.64
2023-04-20T06:51:44.084Z,89.33
2023-04-20T06:52:44.065Z,89.64
2023-04-20T06:53:44.064Z,90.26
2023-04-20T06:54:44.037Z,90.05
2023-04-20T06:55:44.050Z,89.95
2023-04-20T06:56:44.012Z,90.26
2023-04-20T06:57:44.061Z,90.36
2023-04-20T06:58:43.985Z,90.67
2023-04-20T06:59:43.984Z,90.36
2023-04-20T07:00:43.958Z,90.05
2023-04-20T07:01:43.977Z,89.44
2023-04-20T07:02:44.023Z,89.75
2023-04-20T07:03:44.158Z,89.75
2023-04-20T07:04:43.955Z,90.05
2023-04-20T07:05:44.164Z,90.36
2023-04-20T07:06:43.894Z,90.26
2023-04-20T07:07:43.884Z,89.95
2023-04-20T07:08:43.857Z,89.64
2023-04-20T07:09:43.847Z,89.75
2023-04-20T07:10:43.833Z,89.64
2023-04-20T07:11:43.833Z,89.75
2023-04-20T07:12:44.205Z,90.47
2023-04-20T07:13:43.812Z,89.95
2023-04-20T07:14:43.793Z,89.85
2023-04-20T07:15:43.777Z,89.85
2023-04-20T07:16:43.801Z,90.05
2023-04-20T07:17:43.764Z,89.75
2023-04-20T07:18:43.738Z,89.85
2023-04-20T07:19:43.722Z,90.05
2023-04-20T07:20:43.725Z,89.95
2023-04-20T07:21:43.781Z,89.44
2023-04-20T07:22:43.686Z,89.95
2023-04-20T07:23:45.237Z,90.05
2023-04-20T07:24:43.652Z,90.53
2023-04-20T07:25:43.641Z,90.32
2023-04-20T07:26:43.640Z,90.22
2023-04-20T07:27:43.617Z,90.42
2023-04-20T07:28:43.602Z,90.88
2023-04-20T07:29:43.597Z,90.99
2023-04-20T07:30:43.573Z,90.67
2023-04-20T07:31:43.592Z,91.50
2023-04-20T07:32:43.590Z,91.56
2023-04-20T07:33:43.542Z,91.15
2023-04-20T07:34:43.525Z,91.25
2023-04-20T07:35:43.542Z,91.05
2023-04-20T07:36:43.507Z,91.05
2023-04-20T07:37:43.513Z,91.11
2023-04-20T07:38:43.480Z,90.38
2023-04-20T07:39:43.477Z,90.28
2023-04-20T07:40:43.452Z,90.28
2023-04-20T07:41:43.436Z,90.18
2023-04-20T07:42:43.579Z,88.94
2023-04-20T07:43:43.415Z,89.31
2023-04-20T07:44:43.407Z,89.00
2023-04-20T07:45:43.424Z,89.06
2023-04-20T07:46:43.381Z,88.72
2023-04-20T07:47:43.391Z,88.30
2023-04-20T07:48:43.348Z,86.96
2023-04-20T07:49:43.332Z,86.38
2023-04-20T07:50:43.323Z,87.17
2023-04-20T07:51:43.319Z,87.52
2023-04-20T07:52:43.296Z,87.21
2023-04-20T07:53:43.450Z,87.79
2023-04-20T07:54:43.292Z,87.21
2023-04-20T07:55:43.265Z,87.99
2023-04-20T07:56:43.250Z,87.37
2023-04-20T07:57:43.254Z,87.68
2023-04-20T07:58:43.227Z,88.09
2023-04-20T07:59:43.214Z,87.06
2023-04-20T08:00:43.197Z,87.27
2023-04-20T08:01:43.181Z,87.06
2023-04-20T08:02:43.373Z,87.17
2023-04-20T08:03:43.290Z,86.76
2023-04-20T08:04:43.296Z,87.03
2023-04-20T08:05:43.231Z,87.13
2023-04-20T08:06:43.118Z,87.35
2023-04-20T08:07:43.112Z,85.51
2023-04-20T08:08:43.098Z,85.51
2023-04-20T08:09:43.193Z,84.47
2023-04-20T08:10:43.078Z,84.95
2023-04-20T08:11:43.053Z,83.82
2023-04-20T08:12:43.040Z,84.02
2023-04-20T08:13:43.042Z,84.09
2023-04-20T08:14:43.036Z,83.82
2023-04-20T08:15:43.037Z,84.85
2023-04-20T08:16:42.992Z,83.00
2023-04-20T08:17:43.024Z,82.69
2023-04-20T08:18:42.963Z,83.82
2023-04-20T08:19:44.961Z,84.09
2023-04-20T08:20:42.940Z,83.16
2023-04-20T08:21:42.959Z,83.27
2023-04-20T08:22:42.912Z,83.99
2023-04-20T08:23:42.905Z,83.67
2023-04-20T08:24:42.889Z,84.29
2023-04-20T08:25:42.921Z,83.37
2023-04-20T08:26:42.857Z,84.39
2023-04-20T08:27:42.840Z,84.46
2023-04-20T08:28:42.830Z,81.82
2023-04-20T08:29:42.814Z,82.24
2023-04-20T08:30:42.805Z,82.07
2023-04-20T08:31:43.211Z,82.72
2023-04-20T08:32:42.797Z,85.40
2023-04-20T08:33:42.761Z,84.88
2023-04-20T08:34:42.753Z,83.48
2023-04-20T08:35:42.736Z,83.01
2023-04-20T08:36:42.727Z,82.91
2023-04-20T08:37:42.709Z,84.14
2023-04-20T08:38:42.704Z,83.42
2023-04-20T08:39:42.683Z,84.96
2023-04-20T08:40:42.675Z,86.51
2023-04-20T08:41:42.804Z,84.96
2023-04-20T08:42:42.647Z,84.35
2023-04-20T08:43:42.632Z,84.41
2023-04-20T08:44:42.624Z,84.86
2023-04-20T08:45:42.608Z,85.38
2023-04-20T08:46:42.636Z,85.38
2023-04-20T08:47:42.609Z,85.17
2023-04-20T08:48:45.277Z,84.69
2023-04-20T08:49:42.557Z,85.89
2023-04-20T08:50:42.546Z,85.27
2023-04-20T08:51:42.533Z,85.48
2023-04-20T08:52:42.521Z,85.58
2023-04-20T08:53:42.508Z,86.26
2023-04-20T08:54:53.252Z,86.02
2023-04-20T08:55:44.481Z,84.99
2023-04-20T08:56:42.475Z,84.47
2023-04-20T08:57:42.486Z,84.37
2023-04-20T08:58:42.460Z,83.61
2023-04-20T08:59:42.431Z,83.41
2023-04-20T09:00:42.419Z,83.41
2023-04-20T09:01:42.467Z,84.09
2023-04-20T09:02:42.622Z,83.27
2023-04-20T09:03:42.584Z,83.78
2023-04-20T09:04:42.459Z,83.37
2023-04-20T09:05:42.358Z,82.86
2023-04-20T09:06:42.341Z,82.14
2023-04-20T09:07:42.323Z,82.03
2023-04-20T09:08:42.314Z,82.30
2023-04-20T09:09:42.303Z,82.51
2023-04-20T09:10:42.283Z,80.86
2023-04-20T09:11:42.271Z,81.79
2023-04-20T09:12:42.271Z,79.94
2023-04-20T09:13:42.298Z,81.31
2023-04-20T09:14:42.230Z,81.21
2023-04-20T09:15:42.219Z,80.90
2023-04-20T09:16:42.231Z,80.73
2023-04-20T09:17:42.288Z,81.76
2023-04-20T09:18:42.189Z,83.00
2023-04-20T09:19:42.164Z,82.79
2023-04-20T09:20:42.165Z,83.88
2023-04-20T09:21:42.138Z,84.60
2023-04-20T09:22:42.125Z,81.62
2023-04-20T09:23:42.111Z,81.93
2023-04-20T09:24:42.103Z,82.92
2023-04-20T09:25:42.086Z,81.42
2023-04-20T09:26:42.074Z,82.95
2023-04-20T09:27:42.068Z,82.03
2023-04-20T09:28:42.048Z,82.14
2023-04-20T09:29:42.131Z,81.35
2023-04-20T09:30:42.028Z,82.00
2023-04-20T09:31:42.045Z,82.72
2023-04-20T09:32:42.034Z,84.33
2023-04-20T09:33:41.974Z,83.51
2023-04-20T09:34:41.964Z,84.33
2023-04-20T09:35:41.961Z,83.51
2023-04-20T09:36:41.943Z,83.20
2023-04-20T09:37:41.925Z,83.30
2023-04-20T09:38:41.913Z,83.41
2023-04-20T09:39:41.903Z,83.82
2023-04-20T09:40:41.891Z,83.37
2023-04-20T09:41:41.874Z,82.55
2023-04-20T09:42:41.864Z,83.78
2023-04-20T09:43:41.845Z,82.20
2023-04-20T09:44:41.842Z,81.54
2023-04-20T09:45:41.877Z,81.65
2023-04-20T09:46:41.844Z,82.02
2023-04-20T09:47:41.864Z,81.67
2023-04-20T09:48:41.786Z,79.83
2023-04-20T09:49:41.762Z,78.97
2023-04-20T09:50:49.715Z,78.42
2023-04-20T09:51:43.739Z,77.84
2023-04-20T09:52:41.728Z,78.66
2023-04-20T09:53:41.716Z,79.04
2023-04-20T09:54:41.700Z,78.18
2023-04-20T09:55:41.686Z,76.84
2023-04-20T09:56:41.682Z,77.25
2023-04-20T09:57:41.661Z,77.87
2023-04-20T09:58:41.656Z,78.55
2023-04-20T09:59:41.639Z,77.39
2023-04-20T10:00:41.626Z,77.08
2023-04-20T10:01:41.795Z,77.35
2023-04-20T10:02:41.712Z,74.32
2023-04-20T10:03:41.664Z,74.25
2023-04-20T10:04:41.681Z,75.79
2023-04-20T10:05:41.561Z,75.99
2023-04-20T10:06:41.545Z,76.67
2023-04-20T10:07:41.541Z,76.26
2023-04-20T10:08:41.543Z,75.75
2023-04-20T10:09:41.508Z,75.82
2023-04-20T10:11:52.704Z,75.27
2023-04-20T10:12:43.468Z,75.03
2023-04-20T10:13:41.465Z,72.99
2023-04-20T10:14:41.446Z,72.99
2023-04-20T10:15:41.452Z,73.19
2023-04-20T10:16:41.435Z,72.79
2023-04-20T10:17:41.743Z,72.51
2023-04-20T10:18:41.445Z,72.27
2023-04-20T10:19:41.379Z,73.26
2023-04-20T10:20:41.372Z,72.75
2023-04-20T10:21:41.365Z,72.00
2023-04-20T10:22:41.347Z,72.17
2023-04-20T10:23:41.329Z,70.23
2023-04-20T10:24:41.326Z,69.42
2023-04-20T10:25:41.314Z,70.13
2023-04-20T10:26:41.300Z,70.44
2023-04-20T10:27:41.278Z,69.21
2023-04-20T10:28:41.275Z,70.84
2023-04-20T10:29:41.248Z,69.31
2023-04-20T10:30:41.311Z,68.90
2023-04-20T10:31:41.271Z,70.30
2023-04-20T10:32:41.235Z,68.91
2023-04-20T10:33:41.360Z,69.39
2023-04-20T10:34:41.193Z,67.05
2023-04-20T10:35:41.172Z,64.85
2023-04-20T10:36:41.160Z,62.10
2023-04-20T10:37:41.142Z,62.82
2023-04-20T10:38:41.131Z,64.55
2023-04-20T10:39:41.117Z,64.42
2023-04-20T10:40:41.117Z,62.15
2023-04-20T10:41:41.094Z,61.62
2023-04-20T10:42:41.106Z,61.56
2023-04-20T10:43:41.070Z,58.25
2023-04-20T10:44:41.058Z,58.41
2023-04-20T10:45:41.042Z,58.58
2023-04-20T10:46:41.071Z,58.95
2023-04-20T10:47:41.175Z,55.09
2023-04-20T10:48:41.006Z,54.66
2023-04-20T10:49:41.037Z,53.85
2023-04-20T10:50:40.992Z,54.68
2023-04-20T10:51:40.965Z,55.19
2023-04-20T10:52:40.975Z,54.68
2023-04-20T10:53:40.938Z,54.55
2023-04-20T10:54:40.927Z,53.72
2023-04-20T10:55:40.917Z,55.29
2023-04-20T10:56:40.902Z,55.65
2023-04-20T10:57:40.892Z,57.34
2023-04-20T10:58:40.878Z,55.32
2023-04-20T10:59:40.860Z,55.42
2023-04-20T11:00:40.862Z,54.86
2023-04-20T11:01:40.890Z,54.40
2023-04-20T11:02:40.968Z,54.07
2023-04-20T11:03:40.980Z,52.45
2023-04-20T11:04:40.815Z,52.03
2023-04-20T11:05:40.824Z,52.66
2023-04-20T11:06:40.778Z,52.96
2023-04-20T11:07:40.761Z,53.07
2023-04-20T11:08:40.782Z,51.66
2023-04-20T11:09:40.750Z,49.69
2023-04-20T11:10:40.721Z,48.23
2023-04-20T11:11:40.709Z,49.79
2023-04-20T11:12:40.699Z,49.66
2023-04-20T11:13:40.698Z,50.21
2023-04-20T11:14:40.672Z,52.20
2023-04-20T11:15:40.659Z,52.66
2023-04-20T11:16:50.911Z,54.20
2023-04-20T11:17:42.672Z,53.11
2023-04-20T11:18:40.621Z,51.04
2023-04-20T11:19:40.627Z,52.03
2023-04-20T11:20:40.601Z,53.67
2023-04-20T11:21:40.613Z,54.20
2023-04-20T11:22:40.567Z,55.37
2023-04-20T11:23:40.556Z,55.29
2023-04-20T11:24:40.542Z,55.35
2023-04-20T11:25:40.527Z,56.49
2023-04-20T11:26:40.529Z,57.15
2023-04-20T11:27:40.504Z,59.01
2023-04-20T11:28:40.498Z,58.61
2023-04-20T11:29:40.475Z,58.88
2023-04-20T11:30:40.464Z,58.45
2023-04-20T11:31:40.554Z,57.94
2023-04-20T11:32:40.576Z,57.84
2023-04-20T11:33:40.493Z,58.09
2023-04-20T11:34:40.413Z,58.94
2023-04-20T11:35:40.398Z,59.35
2023-04-20T11:37:40.412Z,59.96
2023-04-20T11:38:40.358Z,60.57
2023-04-20T11:39:40.350Z,59.75
2023-04-20T11:40:40.336Z,59.42
2023-04-20T11:41:40.321Z,59.32
2023-04-20T11:42:40.325Z,59.42
2023-04-20T11:43:40.300Z,59.32
2023-04-20T11:44:40.287Z,59.55
2023-04-20T11:45:40.284Z,59.83
2023-04-20T11:46:40.259Z,59.62
2023-04-20T11:47:40.285Z,59.85
2023-04-20T11:48:40.236Z,59.11
2023-04-20T11:49:40.225Z,59.19
2023-04-20T11:50:42.362Z,58.65
2023-04-20T11:51:40.193Z,57.23
2023-04-20T11:52:40.188Z,57.03
2023-04-20T11:53:40.192Z,56.51
2023-04-20T11:54:40.170Z,56.51
2023-04-20T11:55:40.139Z,55.80
2023-04-20T11:56:40.127Z,53.29
2023-04-20T11:57:40.136Z,51.90
2023-04-20T11:58:40.107Z,50.97
2023-04-20T11:59:40.100Z,52.03
2023-04-20T12:00:40.083Z,51.34
2023-04-20T12:01:40.068Z,52.61
2023-04-20T12:02:40.165Z,53.64
2023-04-20T12:03:40.429Z,54.61
2023-04-20T12:04:40.258Z,55.68
2023-04-20T12:05:40.162Z,56.49
2023-04-20T12:06:40.002Z,56.62
2023-04-20T12:07:39.990Z,57.51
2023-04-20T12:08:39.972Z,58.22
2023-04-20T12:09:40.022Z,56.77
2023-04-20T12:10:39.954Z,55.73
2023-04-20T12:11:39.938Z,54.91
2023-04-20T12:12:39.925Z,54.91
2023-04-20T12:13:39.920Z,55.09
2023-04-20T12:14:39.900Z,55.62
2023-04-20T12:15:39.982Z,54.48
2023-04-20T12:16:39.877Z,53.42
2023-04-20T12:17:39.910Z,52.33
2023-04-20T12:18:39.852Z,50.71
2023-04-20T12:19:39.839Z,50.93
2023-04-20T12:20:39.828Z,51.87
2023-04-20T12:21:39.811Z,53.21
2023-04-20T12:22:39.808Z,53.32
2023-04-20T12:23:39.811Z,53.01
2023-04-20T12:24:39.776Z,54.30
2023-04-20T12:25:39.792Z,55.35
2023-04-20T12:26:39.796Z,56.31
2023-04-20T12:27:39.749Z,57.56
2023-04-20T12:28:39.722Z,59.85
2023-04-20T12:29:39.719Z,63.75
2023-04-20T12:30:39.694Z,63.10
2023-04-20T12:31:39.716Z,64.66
2023-04-20T12:32:39.786Z,64.48
2023-04-20T12:33:39.656Z,66.14
2023-04-20T12:34:39.642Z,67.24
2023-04-20T12:35:39.642Z,66.45
2023-04-20T12:36:39.613Z,67.40
2023-04-20T12:37:39.606Z,69.04
2023-04-20T12:38:39.591Z,69.45
2023-04-20T12:39:39.589Z,70.16
2023-04-20T12:40:39.565Z,69.75
2023-04-20T12:41:39.586Z,72.47
2023-04-20T12:42:39.538Z,72.47
2023-04-20T12:43:39.530Z,71.52
2023-04-20T12:44:39.516Z,71.11
2023-04-20T12:45:39.502Z,70.67
2023-04-20T12:46:39.559Z,68.33
2023-04-20T12:47:39.531Z,67.07
2023-04-20T12:48:39.464Z,66.66
2023-04-20T12:49:39.451Z,66.43
2023-04-20T12:50:39.437Z,65.72
2023-04-20T12:51:39.445Z,64.87
2023-04-20T12:52:39.418Z,63.04
2023-04-20T12:53:39.405Z,62.53
2023-04-20T12:54:40.039Z,63.07
2023-04-20T12:55:39.388Z,63.01